Aviation Digital Data Service (ADDS)

Output produced by METARs form (1326 UTC 24 January 2021)
found at http://www.aviationweather.gov/metar/data/
 
METAR text: LHBP 241300Z 30005KT 270V340 9999 FEW032 08/00 Q0999 NOSIG
Conditions at: LHBP (BUDAPEST/FERIHEG, HU) observed 1300 UTC 24 January 2021
Temperature: 8.0°C (46°F)
Dewpoint: 0.0°C (32°F) [RH = 57%]
Pressure (altimeter): 29.50 inches Hg (999.0 mb)
Winds: from the WNW (300 degrees) at 6 MPH (5 knots; 2.6 m/s)
Visibility: 6 or more miles (10+ km)
Ceiling: at least 12,000 feet AGL
Clouds: few clouds at 3200 feet AGL
Weather: no significant weather observed at this time

METAR text: LHBP 241230Z 32006KT 290V350 9999 FEW026 07/01 Q0999 NOSIG
Conditions at: LHBP (BUDAPEST/FERIHEG, HU) observed 1230 UTC 24 January 2021
Temperature: 7.0°C (45°F)
Dewpoint: 1.0°C (34°F) [RH = 66%]
Pressure (altimeter): 29.50 inches Hg (999.0 mb)
Winds: from the NW (320 degrees) at 7 MPH (6 knots; 3.1 m/s)
Visibility: 6 or more miles (10+ km)
Ceiling: at least 12,000 feet AGL
Clouds: few clouds at 2600 feet AGL
Weather: no significant weather observed at this time

METAR text: LHBP 241200Z 30006KT 9999 SCT025 07/02 Q0999 NOSIG
Conditions at: LHBP (BUDAPEST/FERIHEG, HU) observed 1200 UTC 24 January 2021
Temperature: 7.0°C (45°F)
Dewpoint: 2.0°C (36°F) [RH = 70%]
Pressure (altimeter): 29.50 inches Hg (999.0 mb)
Winds: from the WNW (300 degrees) at 7 MPH (6 knots; 3.1 m/s)
Visibility: 6 or more miles (10+ km)
Ceiling: at least 12,000 feet AGL
Clouds: scattered clouds at 2500 feet AGL
Weather: no significant weather observed at this time

METAR text: LHBP 241130Z 31006KT 270V330 9999 FEW022 07/02 Q0999 NOSIG
Conditions at: LHBP (BUDAPEST/FERIHEG, HU) observed 1130 UTC 24 January 2021
Temperature: 7.0°C (45°F)
Dewpoint: 2.0°C (36°F) [RH = 70%]
Pressure (altimeter): 29.50 inches Hg (999.0 mb)
Winds: from the NW (310 degrees) at 7 MPH (6 knots; 3.1 m/s)
Visibility: 6 or more miles (10+ km)
Ceiling: at least 12,000 feet AGL
Clouds: few clouds at 2200 feet AGL
Weather: no significant weather observed at this time

METAR text: LHBP 241100Z 32006KT 9999 BKN018 06/01 Q0998 NOSIG
Conditions at: LHBP (BUDAPEST/FERIHEG, HU) observed 1100 UTC 24 January 2021
Temperature: 6.0°C (43°F)
Dewpoint: 1.0°C (34°F) [RH = 70%]
Pressure (altimeter): 29.47 inches Hg (998.0 mb)
Winds: from the NW (320 degrees) at 7 MPH (6 knots; 3.1 m/s)
Visibility: 6 or more miles (10+ km)
Ceiling: 1800 feet AGL
Clouds: broken clouds at 1800 feet AGL
Weather: no significant weather observed at this time

METAR text: LHBP 241030Z 31007KT 9999 BKN018 06/02 Q0999 NOSIG
Conditions at: LHBP (BUDAPEST/FERIHEG, HU) observed 1030 UTC 24 January 2021
Temperature: 6.0°C (43°F)
Dewpoint: 2.0°C (36°F) [RH = 75%]
Pressure (altimeter): 29.50 inches Hg (999.0 mb)
Winds: from the NW (310 degrees) at 8 MPH (7 knots; 3.6 m/s)
Visibility: 6 or more miles (10+ km)
Ceiling: 1800 feet AGL
Clouds: broken clouds at 1800 feet AGL
Weather: no significant weather observed at this time

METAR text: LHBP 241000Z 26009KT 9999 BKN015 06/03 Q0998 TEMPO BKN008
Conditions at: LHBP (BUDAPEST/FERIHEG, HU) observed 1000 UTC 24 January 2021
Temperature: 6.0°C (43°F)
Dewpoint: 3.0°C (37°F) [RH = 81%]
Pressure (altimeter): 29.47 inches Hg (998.0 mb)
Winds: from the W (260 degrees) at 10 MPH (9 knots; 4.6 m/s)
Visibility: 6 or more miles (10+ km)
Ceiling: 1500 feet AGL
Clouds: broken clouds at 1500 feet AGL
Weather: no significant weather observed at this time

METAR text: LHBP 240930Z 28010KT 9999 4000SW BR FEW008 BKN014 06/03 Q0998 TEMPO BKN008
Conditions at: LHBP (BUDAPEST/FERIHEG, HU) observed 0930 UTC 24 January 2021
Temperature: 6.0°C (43°F)
Dewpoint: 3.0°C (37°F) [RH = 81%]
Pressure (altimeter): 29.47 inches Hg (998.0 mb)
Winds: from the W (280 degrees) at 12 MPH (10 knots; 5.1 m/s)
Visibility: 6 or more miles (10+ km)
Ceiling: 1400 feet AGL
Clouds: few clouds at 800 feet AGL
broken clouds at 1400 feet AGL
Weather: BR  (mist)

METAR text: LHBP 240900Z 28008KT 9999 SCT008 BKN030 05/03 Q0998 TEMPO BKN008
Conditions at: LHBP (BUDAPEST/FERIHEG, HU) observed 0900 UTC 24 January 2021
Temperature: 5.0°C (41°F)
Dewpoint: 3.0°C (37°F) [RH = 87%]
Pressure (altimeter): 29.47 inches Hg (998.0 mb)
Winds: from the W (280 degrees) at 9 MPH (8 knots; 4.1 m/s)
Visibility: 6 or more miles (10+ km)
Ceiling: 3000 feet AGL
Clouds: scattered clouds at 800 feet AGL
broken clouds at 3000 feet AGL
Weather: no significant weather observed at this time

METAR text: LHBP 240830Z 27006KT 9999 -RA FEW008 BKN031 05/03 Q0997 NOSIG
Conditions at: LHBP (BUDAPEST/FERIHEG, HU) observed 0830 UTC 24 January 2021
Temperature: 5.0°C (41°F)
Dewpoint: 3.0°C (37°F) [RH = 87%]
Pressure (altimeter): 29.44 inches Hg (997.0 mb)
Winds: from the W (270 degrees) at 7 MPH (6 knots; 3.1 m/s)
Visibility: 6 or more miles (10+ km)
Ceiling: 3100 feet AGL
Clouds: few clouds at 800 feet AGL
broken clouds at 3100 feet AGL
Weather: -RA  (light rain)

METAR text: LHBP 240800Z 25004KT 9999 FEW017 BKN034 05/03 Q0997 NOSIG
Conditions at: LHBP (BUDAPEST/FERIHEG, HU) observed 0800 UTC 24 January 2021
Temperature: 5.0°C (41°F)
Dewpoint: 3.0°C (37°F) [RH = 87%]
Pressure (altimeter): 29.44 inches Hg (997.0 mb)
Winds: from the WSW (250 degrees) at 5 MPH (4 knots; 2.1 m/s)
Visibility: 6 or more miles (10+ km)
Ceiling: 3400 feet AGL
Clouds: few clouds at 1700 feet AGL
broken clouds at 3400 feet AGL
Weather: no significant weather observed at this time

METAR text: LHBP 240730Z 23006KT 9999 -RA SCT024 BKN032 05/03 Q0997 NOSIG
Conditions at: LHBP (BUDAPEST/FERIHEG, HU) observed 0730 UTC 24 January 2021
Temperature: 5.0°C (41°F)
Dewpoint: 3.0°C (37°F) [RH = 87%]
Pressure (altimeter): 29.44 inches Hg (997.0 mb)
Winds: from the SW (230 degrees) at 7 MPH (6 knots; 3.1 m/s)
Visibility: 6 or more miles (10+ km)
Ceiling: 3200 feet AGL
Clouds: scattered clouds at 2400 feet AGL
broken clouds at 3200 feet AGL
Weather: -RA  (light rain)

METAR text: LHBP 240700Z 21007KT 9999 SCT026 BKN045 04/02 Q0996 NOSIG
Conditions at: LHBP (BUDAPEST/FERIHEG, HU) observed 0700 UTC 24 January 2021
Temperature: 4.0°C (39°F)
Dewpoint: 2.0°C (36°F) [RH = 87%]
Pressure (altimeter): 29.41 inches Hg (996.0 mb)
Winds: from the SSW (210 degrees) at 8 MPH (7 knots; 3.6 m/s)
Visibility: 6 or more miles (10+ km)
Ceiling: 4500 feet AGL
Clouds: scattered clouds at 2600 feet AGL
broken clouds at 4500 feet AGL
Weather: no significant weather observed at this time

METAR text: LHBP 240630Z 22007KT 9999 FEW015 BKN030 04/03 Q0996 NOSIG
Conditions at: LHBP (BUDAPEST/FERIHEG, HU) observed 0630 UTC 24 January 2021
Temperature: 4.0°C (39°F)
Dewpoint: 3.0°C (37°F) [RH = 93%]
Pressure (altimeter): 29.41 inches Hg (996.0 mb)
Winds: from the SW (220 degrees) at 8 MPH (7 knots; 3.6 m/s)
Visibility: 6 or more miles (10+ km)
Ceiling: 3000 feet AGL
Clouds: few clouds at 1500 feet AGL
broken clouds at 3000 feet AGL
Weather: no significant weather observed at this time

METAR text: LHBP 240600Z 20004KT 180V240 9999 SCT037 04/02 Q0996 NOSIG
Conditions at: LHBP (BUDAPEST/FERIHEG, HU) observed 0600 UTC 24 January 2021
Temperature: 4.0°C (39°F)
Dewpoint: 2.0°C (36°F) [RH = 87%]
Pressure (altimeter): 29.41 inches Hg (996.0 mb)
Winds: from the SSW (200 degrees) at 5 MPH (4 knots; 2.1 m/s)
Visibility: 6 or more miles (10+ km)
Ceiling: at least 12,000 feet AGL
Clouds: scattered clouds at 3700 feet AGL
Weather: no significant weather observed at this time

METAR text: LHBP 240530Z 19003KT 9999 FEW039 03/02 Q0996 NOSIG
Conditions at: LHBP (BUDAPEST/FERIHEG, HU) observed 0530 UTC 24 January 2021
Temperature: 3.0°C (37°F)
Dewpoint: 2.0°C (36°F) [RH = 93%]
Pressure (altimeter): 29.41 inches Hg (996.0 mb)
Winds: from the S (190 degrees) at 3 MPH (3 knots; 1.5 m/s)
Visibility: 6 or more miles (10+ km)
Ceiling: at least 12,000 feet AGL
Clouds: few clouds at 3900 feet AGL
Weather: no significant weather observed at this time

METAR text: LHBP 240500Z 17004KT 9999 FEW026 03/02 Q0995 NOSIG
Conditions at: LHBP (BUDAPEST/FERIHEG, HU) observed 0500 UTC 24 January 2021
Temperature: 3.0°C (37°F)
Dewpoint: 2.0°C (36°F) [RH = 93%]
Pressure (altimeter): 29.38 inches Hg (995.0 mb)
Winds: from the S (170 degrees) at 5 MPH (4 knots; 2.1 m/s)
Visibility: 6 or more miles (10+ km)
Ceiling: at least 12,000 feet AGL
Clouds: few clouds at 2600 feet AGL
Weather: no significant weather observed at this time

METAR text: LHBP 240430Z 15004KT 7000 BKN027 03/02 Q0995 NOSIG
Conditions at: LHBP (BUDAPEST/FERIHEG, HU) observed 0430 UTC 24 January 2021
Temperature: 3.0°C (37°F)
Dewpoint: 2.0°C (36°F) [RH = 93%]
Pressure (altimeter): 29.38 inches Hg (995.0 mb)
Winds: from the SSE (150 degrees) at 5 MPH (4 knots; 2.1 m/s)
Visibility: 4 miles ( 7 km)
Ceiling: 2700 feet AGL
Clouds: broken clouds at 2700 feet AGL
Weather: no significant weather observed at this time

METAR text: LHBP 240400Z 12004KT 7000 SCT037 03/03 Q0995 NOSIG
Conditions at: LHBP (BUDAPEST/FERIHEG, HU) observed 0400 UTC 24 January 2021
Temperature: 3.0°C (37°F)
Dewpoint: 3.0°C (37°F) [RH = 100%]
Pressure (altimeter): 29.38 inches Hg (995.0 mb)
Winds: from the ESE (120 degrees) at 5 MPH (4 knots; 2.1 m/s)
Visibility: 4 miles ( 7 km)
Ceiling: at least 12,000 feet AGL
Clouds: scattered clouds at 3700 feet AGL
Weather: no significant weather observed at this time

METAR text: LHBP 240330Z 13003KT 8000 FEW031 BKN036 04/04 Q0995 NOSIG
Conditions at: LHBP (BUDAPEST/FERIHEG, HU) observed 0330 UTC 24 January 2021
Temperature: 4.0°C (39°F)
Dewpoint: 4.0°C (39°F) [RH = 100%]
Pressure (altimeter): 29.38 inches Hg (995.0 mb)
Winds: from the SE (130 degrees) at 3 MPH (3 knots; 1.5 m/s)
Visibility: 5 miles ( 8 km)
Ceiling: 3600 feet AGL
Clouds: few clouds at 3100 feet AGL
broken clouds at 3600 feet AGL
Weather: no significant weather observed at this time

METAR text: LHBP 240300Z 13003KT 090V160 8000 SCT028 BKN040 04/04 Q0996 NOSIG
Conditions at: LHBP (BUDAPEST/FERIHEG, HU) observed 0300 UTC 24 January 2021
Temperature: 4.0°C (39°F)
Dewpoint: 4.0°C (39°F) [RH = 100%]
Pressure (altimeter): 29.41 inches Hg (996.0 mb)
Winds: from the SE (130 degrees) at 3 MPH (3 knots; 1.5 m/s)
Visibility: 5 miles ( 8 km)
Ceiling: 4000 feet AGL
Clouds: scattered clouds at 2800 feet AGL
broken clouds at 4000 feet AGL
Weather: no significant weather observed at this time

METAR text: LHBP 240230Z 15003KT 110V180 6000 BKN036 04/03 Q0996 NOSIG
Conditions at: LHBP (BUDAPEST/FERIHEG, HU) observed 0230 UTC 24 January 2021
Temperature: 4.0°C (39°F)
Dewpoint: 3.0°C (37°F) [RH = 93%]
Pressure (altimeter): 29.41 inches Hg (996.0 mb)
Winds: from the SSE (150 degrees) at 3 MPH (3 knots; 1.5 m/s)
Visibility: 4 miles ( 6 km)
Ceiling: 3600 feet AGL
Clouds: broken clouds at 3600 feet AGL
Weather: no significant weather observed at this time

METAR text: LHBP 240200Z 11004KT 8000 SCT041 03/03 Q0995 NOSIG
Conditions at: LHBP (BUDAPEST/FERIHEG, HU) observed 0200 UTC 24 January 2021
Temperature: 3.0°C (37°F)
Dewpoint: 3.0°C (37°F) [RH = 100%]
Pressure (altimeter): 29.38 inches Hg (995.0 mb)
Winds: from the ESE (110 degrees) at 5 MPH (4 knots; 2.1 m/s)
Visibility: 5 miles ( 8 km)
Ceiling: at least 12,000 feet AGL
Clouds: scattered clouds at 4100 feet AGL
Weather: no significant weather observed at this time

METAR text: LHBP 240130Z 11003KT 7000 NSC 03/03 Q0996 NOSIG
Conditions at: LHBP (BUDAPEST/FERIHEG, HU) observed 0130 UTC 24 January 2021
Temperature: 3.0°C (37°F)
Dewpoint: 3.0°C (37°F) [RH = 100%]
Pressure (altimeter): 29.41 inches Hg (996.0 mb)
Winds: from the ESE (110 degrees) at 3 MPH (3 knots; 1.5 m/s)
Visibility: 4 miles ( 7 km)
Ceiling: at least 12,000 feet AGL
Clouds: sky clear below 12,000 feet AGL
Weather: no significant weather observed at this time

METAR text: LHBP 240100Z VRB02KT 9000 NSC 03/02 Q0996 NOSIG
Conditions at: LHBP (BUDAPEST/FERIHEG, HU) observed 0100 UTC 24 January 2021
Temperature: 3.0°C (37°F)
Dewpoint: 2.0°C (36°F) [RH = 93%]
Pressure (altimeter): 29.41 inches Hg (996.0 mb)
Winds: variable direction winds at 2 MPH (2 knots; 1.0 m/s)
Visibility: 6 miles ( 9 km)
Ceiling: at least 12,000 feet AGL
Clouds: sky clear below 12,000 feet AGL
Weather: no significant weather observed at this time

METAR text: LHBP 240030Z 11003KT 9000 NSC 03/03 Q0996 NOSIG
Conditions at: LHBP (BUDAPEST/FERIHEG, HU) observed 0030 UTC 24 January 2021
Temperature: 3.0°C (37°F)
Dewpoint: 3.0°C (37°F) [RH = 100%]
Pressure (altimeter): 29.41 inches Hg (996.0 mb)
Winds: from the ESE (110 degrees) at 3 MPH (3 knots; 1.5 m/s)
Visibility: 6 miles ( 9 km)
Ceiling: at least 12,000 feet AGL
Clouds: sky clear below 12,000 feet AGL
Weather: no significant weather observed at this time

METAR text: LHBP 240000Z VRB02KT 9000 NSC 03/02 Q0996 NOSIG
Conditions at: LHBP (BUDAPEST/FERIHEG, HU) observed 0000 UTC 24 January 2021
Temperature: 3.0°C (37°F)
Dewpoint: 2.0°C (36°F) [RH = 93%]
Pressure (altimeter): 29.41 inches Hg (996.0 mb)
Winds: variable direction winds at 2 MPH (2 knots; 1.0 m/s)
Visibility: 6 miles ( 9 km)
Ceiling: at least 12,000 feet AGL
Clouds: sky clear below 12,000 feet AGL
Weather: no significant weather observed at this time

METAR text: LHBP 232330Z 08002KT 9000 NSC 03/03 Q0996 NOSIG
Conditions at: LHBP (BUDAPEST/FERIHEG, HU) observed 2330 UTC 23 January 2021
Temperature: 3.0°C (37°F)
Dewpoint: 3.0°C (37°F) [RH = 100%]
Pressure (altimeter): 29.41 inches Hg (996.0 mb)
Winds: from the E (80 degrees) at 2 MPH (2 knots; 1.0 m/s)
Visibility: 6 miles ( 9 km)
Ceiling: at least 12,000 feet AGL
Clouds: sky clear below 12,000 feet AGL
Weather: no significant weather observed at this time

METAR text: LHBP 232300Z VRB01KT CAVOK 03/02 Q0997 NOSIG
Conditions at: LHBP (BUDAPEST/FERIHEG, HU) observed 2300 UTC 23 January 2021
Temperature: 3.0°C (37°F)
Dewpoint: 2.0°C (36°F) [RH = 93%]
Pressure (altimeter): 29.44 inches Hg (997.0 mb)
Winds: variable direction winds at 1 MPH (1 knots; 0.5 m/s)
Visibility: 6 or more miles (10+ km)
Ceiling: ceiling and visibility are OK
Clouds: unknown
Weather: no significant weather observed at this time

METAR text: LHBP 232230Z 11001KT CAVOK 03/03 Q0997 NOSIG
Conditions at: LHBP (BUDAPEST/FERIHEG, HU) observed 2230 UTC 23 January 2021
Temperature: 3.0°C (37°F)
Dewpoint: 3.0°C (37°F) [RH = 100%]
Pressure (altimeter): 29.44 inches Hg (997.0 mb)
Winds: from the ESE (110 degrees) at 1 MPH (1 knots; 0.5 m/s)
Visibility: 6 or more miles (10+ km)
Ceiling: ceiling and visibility are OK
Clouds: unknown
Weather: no significant weather observed at this time

METAR text: LHBP 232200Z 08002KT CAVOK 04/03 Q0997 NOSIG
Conditions at: LHBP (BUDAPEST/FERIHEG, HU) observed 2200 UTC 23 January 2021
Temperature: 4.0°C (39°F)
Dewpoint: 3.0°C (37°F) [RH = 93%]
Pressure (altimeter): 29.44 inches Hg (997.0 mb)
Winds: from the E (80 degrees) at 2 MPH (2 knots; 1.0 m/s)
Visibility: 6 or more miles (10+ km)
Ceiling: ceiling and visibility are OK
Clouds: unknown
Weather: no significant weather observed at this time

METAR text: LHBP 232130Z 07001KT 9999 SCT040 05/04 Q0997 NOSIG
Conditions at: LHBP (BUDAPEST/FERIHEG, HU) observed 2130 UTC 23 January 2021
Temperature: 5.0°C (41°F)
Dewpoint: 4.0°C (39°F) [RH = 93%]
Pressure (altimeter): 29.44 inches Hg (997.0 mb)
Winds: from the ENE (70 degrees) at 1 MPH (1 knots; 0.5 m/s)
Visibility: 6 or more miles (10+ km)
Ceiling: at least 12,000 feet AGL
Clouds: scattered clouds at 4000 feet AGL
Weather: no significant weather observed at this time

METAR text: LHBP 232100Z VRB01KT 9999 SCT037 BKN085 05/04 Q0997 NOSIG
Conditions at: LHBP (BUDAPEST/FERIHEG, HU) observed 2100 UTC 23 January 2021
Temperature: 5.0°C (41°F)
Dewpoint: 4.0°C (39°F) [RH = 93%]
Pressure (altimeter): 29.44 inches Hg (997.0 mb)
Winds: variable direction winds at 1 MPH (1 knots; 0.5 m/s)
Visibility: 6 or more miles (10+ km)
Ceiling: 8500 feet AGL
Clouds: scattered clouds at 3700 feet AGL
broken clouds at 8500 feet AGL
Weather: no significant weather observed at this time

METAR text: LHBP 232030Z 11003KT 9999 SCT037 BKN082 06/05 Q0997 NOSIG
Conditions at: LHBP (BUDAPEST/FERIHEG, HU) observed 2030 UTC 23 January 2021
Temperature: 6.0°C (43°F)
Dewpoint: 5.0°C (41°F) [RH = 93%]
Pressure (altimeter): 29.44 inches Hg (997.0 mb)
Winds: from the ESE (110 degrees) at 3 MPH (3 knots; 1.5 m/s)
Visibility: 6 or more miles (10+ km)
Ceiling: 8200 feet AGL
Clouds: scattered clouds at 3700 feet AGL
broken clouds at 8200 feet AGL
Weather: no significant weather observed at this time

METAR text: LHBP 232000Z 12004KT CAVOK 06/04 Q0997 NOSIG
Conditions at: LHBP (BUDAPEST/FERIHEG, HU) observed 2000 UTC 23 January 2021
Temperature: 6.0°C (43°F)
Dewpoint: 4.0°C (39°F) [RH = 87%]
Pressure (altimeter): 29.44 inches Hg (997.0 mb)
Winds: from the ESE (120 degrees) at 5 MPH (4 knots; 2.1 m/s)
Visibility: 6 or more miles (10+ km)
Ceiling: ceiling and visibility are OK
Clouds: unknown
Weather: no significant weather observed at this time

METAR text: LHBP 231930Z 13004KT 9999 BKN040 07/05 Q0997 NOSIG
Conditions at: LHBP (BUDAPEST/FERIHEG, HU) observed 1930 UTC 23 January 2021
Temperature: 7.0°C (45°F)
Dewpoint: 5.0°C (41°F) [RH = 87%]
Pressure (altimeter): 29.44 inches Hg (997.0 mb)
Winds: from the SE (130 degrees) at 5 MPH (4 knots; 2.1 m/s)
Visibility: 6 or more miles (10+ km)
Ceiling: 4000 feet AGL
Clouds: broken clouds at 4000 feet AGL
Weather: no significant weather observed at this time

METAR text: LHBP 231900Z 17003KT 9999 FEW032 BKN037 08/05 Q0998 NOSIG
Conditions at: LHBP (BUDAPEST/FERIHEG, HU) observed 1900 UTC 23 January 2021
Temperature: 8.0°C (46°F)
Dewpoint: 5.0°C (41°F) [RH = 81%]
Pressure (altimeter): 29.47 inches Hg (998.0 mb)
Winds: from the S (170 degrees) at 3 MPH (3 knots; 1.5 m/s)
Visibility: 6 or more miles (10+ km)
Ceiling: 3700 feet AGL
Clouds: few clouds at 3200 feet AGL
broken clouds at 3700 feet AGL
Weather: no significant weather observed at this time

METAR text: LHBP 231830Z 22005KT 9999 FEW031 BKN039 09/05 Q0998 NOSIG
Conditions at: LHBP (BUDAPEST/FERIHEG, HU) observed 1830 UTC 23 January 2021
Temperature: 9.0°C (48°F)
Dewpoint: 5.0°C (41°F) [RH = 76%]
Pressure (altimeter): 29.47 inches Hg (998.0 mb)
Winds: from the SW (220 degrees) at 6 MPH (5 knots; 2.6 m/s)
Visibility: 6 or more miles (10+ km)
Ceiling: 3900 feet AGL
Clouds: few clouds at 3100 feet AGL
broken clouds at 3900 feet AGL
Weather: no significant weather observed at this time

METAR text: LHBP 231800Z 18007KT 9999 VCSH FEW029 BKN045 OVC070 09/05 Q0998 NOSIG
Conditions at: LHBP (BUDAPEST/FERIHEG, HU) observed 1800 UTC 23 January 2021
Temperature: 9.0°C (48°F)
Dewpoint: 5.0°C (41°F) [RH = 76%]
Pressure (altimeter): 29.47 inches Hg (998.0 mb)
Winds: from the S (180 degrees) at 8 MPH (7 knots; 3.6 m/s)
Visibility: 6 or more miles (10+ km)
Ceiling: 4500 feet AGL
Clouds: few clouds at 2900 feet AGL
broken clouds at 4500 feet AGL
overcast cloud deck at 7000 feet AGL
Weather: VCSH  (showers in vicinity)

METAR text: LHBP 231730Z 13008KT 9999 VCSH FEW028 BKN054 OVC079 08/05 Q0998 NOSIG
Conditions at: LHBP (BUDAPEST/FERIHEG, HU) observed 1730 UTC 23 January 2021
Temperature: 8.0°C (46°F)
Dewpoint: 5.0°C (41°F) [RH = 81%]
Pressure (altimeter): 29.47 inches Hg (998.0 mb)
Winds: from the SE (130 degrees) at 9 MPH (8 knots; 4.1 m/s)
Visibility: 6 or more miles (10+ km)
Ceiling: 5400 feet AGL
Clouds: few clouds at 2800 feet AGL
broken clouds at 5400 feet AGL
overcast cloud deck at 7900 feet AGL
Weather: VCSH  (showers in vicinity)

METAR text: LHBP 231700Z 12006KT 9999 VCSH FEW029 BKN056 OVC080 08/05 Q0997 NOSIG
Conditions at: LHBP (BUDAPEST/FERIHEG, HU) observed 1700 UTC 23 January 2021
Temperature: 8.0°C (46°F)
Dewpoint: 5.0°C (41°F) [RH = 81%]
Pressure (altimeter): 29.44 inches Hg (997.0 mb)
Winds: from the ESE (120 degrees) at 7 MPH (6 knots; 3.1 m/s)
Visibility: 6 or more miles (10+ km)
Ceiling: 5600 feet AGL
Clouds: few clouds at 2900 feet AGL
broken clouds at 5600 feet AGL
overcast cloud deck at 8000 feet AGL
Weather: VCSH  (showers in vicinity)

METAR text: LHBP 231630Z 13007KT 9999 -SHRA FEW031 BKN057 OVC083 09/05 Q0998 NOSIG
Conditions at: LHBP (BUDAPEST/FERIHEG, HU) observed 1630 UTC 23 January 2021
Temperature: 9.0°C (48°F)
Dewpoint: 5.0°C (41°F) [RH = 76%]
Pressure (altimeter): 29.47 inches Hg (998.0 mb)
Winds: from the SE (130 degrees) at 8 MPH (7 knots; 3.6 m/s)
Visibility: 6 or more miles (10+ km)
Ceiling: 5700 feet AGL
Clouds: few clouds at 3100 feet AGL
broken clouds at 5700 feet AGL
overcast cloud deck at 8300 feet AGL
Weather: -SHRA  (light rain showers)

METAR text: LHBP 231600Z 10007KT 9999 VCSH FEW034 SCT060 BKN090 08/05 Q0998 TEMPO 5000 SHRA SCT030TCU SCT060 BKN090
Conditions at: LHBP (BUDAPEST/FERIHEG, HU) observed 1600 UTC 23 January 2021
Temperature: 8.0°C (46°F)
Dewpoint: 5.0°C (41°F) [RH = 81%]
Pressure (altimeter): 29.47 inches Hg (998.0 mb)
Winds: from the E (100 degrees) at 8 MPH (7 knots; 3.6 m/s)
Visibility: 6 or more miles (10+ km)
Ceiling: 9000 feet AGL
Clouds: few clouds at 3400 feet AGL
scattered clouds at 6000 feet AGL
broken clouds at 9000 feet AGL
Weather: VCSH  (showers in vicinity)

METAR text: LHBP 231530Z 11007KT CAVOK 09/05 Q0998 NOSIG
Conditions at: LHBP (BUDAPEST/FERIHEG, HU) observed 1530 UTC 23 January 2021
Temperature: 9.0°C (48°F)
Dewpoint: 5.0°C (41°F) [RH = 76%]
Pressure (altimeter): 29.47 inches Hg (998.0 mb)
Winds: from the ESE (110 degrees) at 8 MPH (7 knots; 3.6 m/s)
Visibility: 6 or more miles (10+ km)
Ceiling: ceiling and visibility are OK
Clouds: unknown
Weather: no significant weather observed at this time

METAR text: LHBP 231500Z 09007KT CAVOK 09/05 Q0998 NOSIG
Conditions at: LHBP (BUDAPEST/FERIHEG, HU) observed 1500 UTC 23 January 2021
Temperature: 9.0°C (48°F)
Dewpoint: 5.0°C (41°F) [RH = 76%]
Pressure (altimeter): 29.47 inches Hg (998.0 mb)
Winds: from the E (90 degrees) at 8 MPH (7 knots; 3.6 m/s)
Visibility: 6 or more miles (10+ km)
Ceiling: ceiling and visibility are OK
Clouds: unknown
Weather: no significant weather observed at this time

METAR text: LHBP 231430Z 10007KT CAVOK 09/05 Q0998 NOSIG
Conditions at: LHBP (BUDAPEST/FERIHEG, HU) observed 1430 UTC 23 January 2021
Temperature: 9.0°C (48°F)
Dewpoint: 5.0°C (41°F) [RH = 76%]
Pressure (altimeter): 29.47 inches Hg (998.0 mb)
Winds: from the E (100 degrees) at 8 MPH (7 knots; 3.6 m/s)
Visibility: 6 or more miles (10+ km)
Ceiling: ceiling and visibility are OK
Clouds: unknown
Weather: no significant weather observed at this time

METAR text: LHBP 231400Z 12006KT CAVOK 10/05 Q0999 NOSIG
Conditions at: LHBP (BUDAPEST/FERIHEG, HU) observed 1400 UTC 23 January 2021
Temperature: 10.0°C (50°F)
Dewpoint: 5.0°C (41°F) [RH = 71%]
Pressure (altimeter): 29.50 inches Hg (999.0 mb)
Winds: from the ESE (120 degrees) at 7 MPH (6 knots; 3.1 m/s)
Visibility: 6 or more miles (10+ km)
Ceiling: ceiling and visibility are OK
Clouds: unknown
Weather: no significant weather observed at this time

METAR text: LHBP 231330Z 16006KT 9999 FEW038 SCT058 BKN080 11/05 Q0999 NOSIG
Conditions at: LHBP (BUDAPEST/FERIHEG, HU) observed 1330 UTC 23 January 2021
Temperature: 11.0°C (52°F)
Dewpoint: 5.0°C (41°F) [RH = 66%]
Pressure (altimeter): 29.50 inches Hg (999.0 mb)
Winds: from the SSE (160 degrees) at 7 MPH (6 knots; 3.1 m/s)
Visibility: 6 or more miles (10+ km)
Ceiling: 8000 feet AGL
Clouds: few clouds at 3800 feet AGL
scattered clouds at 5800 feet AGL
broken clouds at 8000 feet AGL
Weather: no significant weather observed at this time

METAR text: LHBP 231300Z 19010KT 9999 FEW037 SCT060 BKN084 11/04 Q0999 NOSIG
Conditions at: LHBP (BUDAPEST/FERIHEG, HU) observed 1300 UTC 23 January 2021
Temperature: 11.0°C (52°F)
Dewpoint: 4.0°C (39°F) [RH = 62%]
Pressure (altimeter): 29.50 inches Hg (999.0 mb)
Winds: from the S (190 degrees) at 12 MPH (10 knots; 5.1 m/s)
Visibility: 6 or more miles (10+ km)
Ceiling: 8400 feet AGL
Clouds: few clouds at 3700 feet AGL
scattered clouds at 6000 feet AGL
broken clouds at 8400 feet AGL
Weather: no significant weather observed at this time

METAR text: LHBP 231230Z 16008KT CAVOK 12/05 Q0999 NOSIG
Conditions at: LHBP (BUDAPEST/FERIHEG, HU) observed 1230 UTC 23 January 2021
Temperature: 12.0°C (54°F)
Dewpoint: 5.0°C (41°F) [RH = 62%]
Pressure (altimeter): 29.50 inches Hg (999.0 mb)
Winds: from the SSE (160 degrees) at 9 MPH (8 knots; 4.1 m/s)
Visibility: 6 or more miles (10+ km)
Ceiling: ceiling and visibility are OK
Clouds: unknown
Weather: no significant weather observed at this time

METAR text: LHBP 231200Z 14006KT CAVOK 12/05 Q0999 NOSIG
Conditions at: LHBP (BUDAPEST/FERIHEG, HU) observed 1200 UTC 23 January 2021
Temperature: 12.0°C (54°F)
Dewpoint: 5.0°C (41°F) [RH = 62%]
Pressure (altimeter): 29.50 inches Hg (999.0 mb)
Winds: from the SE (140 degrees) at 7 MPH (6 knots; 3.1 m/s)
Visibility: 6 or more miles (10+ km)
Ceiling: ceiling and visibility are OK
Clouds: unknown
Weather: no significant weather observed at this time

METAR text: LHBP 231130Z 17007KT CAVOK 12/05 Q0999 NOSIG
Conditions at: LHBP (BUDAPEST/FERIHEG, HU) observed 1130 UTC 23 January 2021
Temperature: 12.0°C (54°F)
Dewpoint: 5.0°C (41°F) [RH = 62%]
Pressure (altimeter): 29.50 inches Hg (999.0 mb)
Winds: from the S (170 degrees) at 8 MPH (7 knots; 3.6 m/s)
Visibility: 6 or more miles (10+ km)
Ceiling: ceiling and visibility are OK
Clouds: unknown
Weather: no significant weather observed at this time

METAR text: LHBP 231100Z 17008KT CAVOK 11/05 Q1000 NOSIG
Conditions at: LHBP (BUDAPEST/FERIHEG, HU) observed 1100 UTC 23 January 2021
Temperature: 11.0°C (52°F)
Dewpoint: 5.0°C (41°F) [RH = 66%]
Pressure (altimeter): 29.53 inches Hg (1000.0 mb)
Winds: from the S (170 degrees) at 9 MPH (8 knots; 4.1 m/s)
Visibility: 6 or more miles (10+ km)
Ceiling: ceiling and visibility are OK
Clouds: unknown
Weather: no significant weather observed at this time

METAR text: LHBP 231030Z 15007KT CAVOK 10/05 Q1000 NOSIG
Conditions at: LHBP (BUDAPEST/FERIHEG, HU) observed 1030 UTC 23 January 2021
Temperature: 10.0°C (50°F)
Dewpoint: 5.0°C (41°F) [RH = 71%]
Pressure (altimeter): 29.53 inches Hg (1000.0 mb)
Winds: from the SSE (150 degrees) at 8 MPH (7 knots; 3.6 m/s)
Visibility: 6 or more miles (10+ km)
Ceiling: ceiling and visibility are OK
Clouds: unknown
Weather: no significant weather observed at this time

METAR text: LHBP 231000Z 15006KT CAVOK 10/05 Q1000 NOSIG
Conditions at: LHBP (BUDAPEST/FERIHEG, HU) observed 1000 UTC 23 January 2021
Temperature: 10.0°C (50°F)
Dewpoint: 5.0°C (41°F) [RH = 71%]
Pressure (altimeter): 29.53 inches Hg (1000.0 mb)
Winds: from the SSE (150 degrees) at 7 MPH (6 knots; 3.1 m/s)
Visibility: 6 or more miles (10+ km)
Ceiling: ceiling and visibility are OK
Clouds: unknown
Weather: no significant weather observed at this time

METAR text: LHBP 230930Z VRB02KT CAVOK 09/05 Q1001 NOSIG
Conditions at: LHBP (BUDAPEST/FERIHEG, HU) observed 0930 UTC 23 January 2021
Temperature: 9.0°C (48°F)
Dewpoint: 5.0°C (41°F) [RH = 76%]
Pressure (altimeter): 29.56 inches Hg (1001.0 mb)
Winds: variable direction winds at 2 MPH (2 knots; 1.0 m/s)
Visibility: 6 or more miles (10+ km)
Ceiling: ceiling and visibility are OK
Clouds: unknown
Weather: no significant weather observed at this time

METAR text: LHBP 230900Z 28004KT 250V310 CAVOK 09/05 Q1001 NOSIG
Conditions at: LHBP (BUDAPEST/FERIHEG, HU) observed 0900 UTC 23 January 2021
Temperature: 9.0°C (48°F)
Dewpoint: 5.0°C (41°F) [RH = 76%]
Pressure (altimeter): 29.56 inches Hg (1001.0 mb)
Winds: from the W (280 degrees) at 5 MPH (4 knots; 2.1 m/s)
Visibility: 6 or more miles (10+ km)
Ceiling: ceiling and visibility are OK
Clouds: unknown
Weather: no significant weather observed at this time

METAR text: LHBP 230830Z 11005KT CAVOK 08/05 Q1000 NOSIG
Conditions at: LHBP (BUDAPEST/FERIHEG, HU) observed 0830 UTC 23 January 2021
Temperature: 8.0°C (46°F)
Dewpoint: 5.0°C (41°F) [RH = 81%]
Pressure (altimeter): 29.53 inches Hg (1000.0 mb)
Winds: from the ESE (110 degrees) at 6 MPH (5 knots; 2.6 m/s)
Visibility: 6 or more miles (10+ km)
Ceiling: ceiling and visibility are OK
Clouds: unknown
Weather: no significant weather observed at this time

METAR text: LHBP 230800Z 09004KT CAVOK 08/05 Q1000 NOSIG
Conditions at: LHBP (BUDAPEST/FERIHEG, HU) observed 0800 UTC 23 January 2021
Temperature: 8.0°C (46°F)
Dewpoint: 5.0°C (41°F) [RH = 81%]
Pressure (altimeter): 29.53 inches Hg (1000.0 mb)
Winds: from the E (90 degrees) at 5 MPH (4 knots; 2.1 m/s)
Visibility: 6 or more miles (10+ km)
Ceiling: ceiling and visibility are OK
Clouds: unknown
Weather: no significant weather observed at this time

METAR text: LHBP 230730Z 10004KT CAVOK 08/05 Q1000 NOSIG
Conditions at: LHBP (BUDAPEST/FERIHEG, HU) observed 0730 UTC 23 January 2021
Temperature: 8.0°C (46°F)
Dewpoint: 5.0°C (41°F) [RH = 81%]
Pressure (altimeter): 29.53 inches Hg (1000.0 mb)
Winds: from the E (100 degrees) at 5 MPH (4 knots; 2.1 m/s)
Visibility: 6 or more miles (10+ km)
Ceiling: ceiling and visibility are OK
Clouds: unknown
Weather: no significant weather observed at this time

METAR text: LHBP 230700Z 12005KT 9999 -RA NSC 07/05 Q1000 NOSIG
Conditions at: LHBP (BUDAPEST/FERIHEG, HU) observed 0700 UTC 23 January 2021
Temperature: 7.0°C (45°F)
Dewpoint: 5.0°C (41°F) [RH = 87%]
Pressure (altimeter): 29.53 inches Hg (1000.0 mb)
Winds: from the ESE (120 degrees) at 6 MPH (5 knots; 2.6 m/s)
Visibility: 6 or more miles (10+ km)
Ceiling: at least 12,000 feet AGL
Clouds: sky clear below 12,000 feet AGL
Weather: -RA  (light rain)

METAR text: LHBP 230630Z 12007KT 9999 -RA NSC 08/05 Q1000 NOSIG
Conditions at: LHBP (BUDAPEST/FERIHEG, HU) observed 0630 UTC 23 January 2021
Temperature: 8.0°C (46°F)
Dewpoint: 5.0°C (41°F) [RH = 81%]
Pressure (altimeter): 29.53 inches Hg (1000.0 mb)
Winds: from the ESE (120 degrees) at 8 MPH (7 knots; 3.6 m/s)
Visibility: 6 or more miles (10+ km)
Ceiling: at least 12,000 feet AGL
Clouds: sky clear below 12,000 feet AGL
Weather: -RA  (light rain)

METAR text: LHBP 230600Z 11003KT 9999 -RA NSC 07/05 Q1000 NOSIG
Conditions at: LHBP (BUDAPEST/FERIHEG, HU) observed 0600 UTC 23 January 2021
Temperature: 7.0°C (45°F)
Dewpoint: 5.0°C (41°F) [RH = 87%]
Pressure (altimeter): 29.53 inches Hg (1000.0 mb)
Winds: from the ESE (110 degrees) at 3 MPH (3 knots; 1.5 m/s)
Visibility: 6 or more miles (10+ km)
Ceiling: at least 12,000 feet AGL
Clouds: sky clear below 12,000 feet AGL
Weather: -RA  (light rain)

METAR text: LHBP 230530Z 14008KT CAVOK 08/05 Q1000 NOSIG
Conditions at: LHBP (BUDAPEST/FERIHEG, HU) observed 0530 UTC 23 January 2021
Temperature: 8.0°C (46°F)
Dewpoint: 5.0°C (41°F) [RH = 81%]
Pressure (altimeter): 29.53 inches Hg (1000.0 mb)
Winds: from the SE (140 degrees) at 9 MPH (8 knots; 4.1 m/s)
Visibility: 6 or more miles (10+ km)
Ceiling: ceiling and visibility are OK
Clouds: unknown
Weather: no significant weather observed at this time

METAR text: LHBP 230500Z 13010KT 9999 -RA NSC 08/05 Q1000 NOSIG
Conditions at: LHBP (BUDAPEST/FERIHEG, HU) observed 0500 UTC 23 January 2021
Temperature: 8.0°C (46°F)
Dewpoint: 5.0°C (41°F) [RH = 81%]
Pressure (altimeter): 29.53 inches Hg (1000.0 mb)
Winds: from the SE (130 degrees) at 12 MPH (10 knots; 5.1 m/s)
Visibility: 6 or more miles (10+ km)
Ceiling: at least 12,000 feet AGL
Clouds: sky clear below 12,000 feet AGL
Weather: -RA  (light rain)

METAR text: LHBP 230430Z 15011KT 9999 -RA NSC 08/05 Q1000 NOSIG
Conditions at: LHBP (BUDAPEST/FERIHEG, HU) observed 0430 UTC 23 January 2021
Temperature: 8.0°C (46°F)
Dewpoint: 5.0°C (41°F) [RH = 81%]
Pressure (altimeter): 29.53 inches Hg (1000.0 mb)
Winds: from the SSE (150 degrees) at 13 MPH (11 knots; 5.7 m/s)
Visibility: 6 or more miles (10+ km)
Ceiling: at least 12,000 feet AGL
Clouds: sky clear below 12,000 feet AGL
Weather: -RA  (light rain)

METAR text: LHBP 230400Z 13006KT 9999 -RA NSC 08/04 Q1001 NOSIG
Conditions at: LHBP (BUDAPEST/FERIHEG, HU) observed 0400 UTC 23 January 2021
Temperature: 8.0°C (46°F)
Dewpoint: 4.0°C (39°F) [RH = 76%]
Pressure (altimeter): 29.56 inches Hg (1001.0 mb)
Winds: from the SE (130 degrees) at 7 MPH (6 knots; 3.1 m/s)
Visibility: 6 or more miles (10+ km)
Ceiling: at least 12,000 feet AGL
Clouds: sky clear below 12,000 feet AGL
Weather: -RA  (light rain)

METAR text: LHBP 230330Z 13007KT CAVOK 08/04 Q1001 NOSIG
Conditions at: LHBP (BUDAPEST/FERIHEG, HU) observed 0330 UTC 23 January 2021
Temperature: 8.0°C (46°F)
Dewpoint: 4.0°C (39°F) [RH = 76%]
Pressure (altimeter): 29.56 inches Hg (1001.0 mb)
Winds: from the SE (130 degrees) at 8 MPH (7 knots; 3.6 m/s)
Visibility: 6 or more miles (10+ km)
Ceiling: ceiling and visibility are OK
Clouds: unknown
Weather: no significant weather observed at this time

METAR text: LHBP 230300Z 11008KT CAVOK 07/04 Q1001 NOSIG
Conditions at: LHBP (BUDAPEST/FERIHEG, HU) observed 0300 UTC 23 January 2021
Temperature: 7.0°C (45°F)
Dewpoint: 4.0°C (39°F) [RH = 81%]
Pressure (altimeter): 29.56 inches Hg (1001.0 mb)
Winds: from the ESE (110 degrees) at 9 MPH (8 knots; 4.1 m/s)
Visibility: 6 or more miles (10+ km)
Ceiling: ceiling and visibility are OK
Clouds: unknown
Weather: no significant weather observed at this time

METAR text: LHBP 230230Z AUTO 11007KT 9999 -RA SCT062/// BKN071/// OVC087/// 07/04 Q1001
Conditions at: LHBP (BUDAPEST/FERIHEG, HU) observed 0230 UTC 23 January 2021
Temperature: 7.0°C (45°F)
Dewpoint: 4.0°C (39°F) [RH = 81%]
Pressure (altimeter): 29.56 inches Hg (1001.0 mb)
Winds: from the ESE (110 degrees) at 8 MPH (7 knots; 3.6 m/s)
Visibility: 6 or more miles (10+ km)
Ceiling: 7100 feet AGL
Clouds: scattered clouds at 6200 feet AGL
broken clouds at 7100 feet AGL
overcast cloud deck at 8700 feet AGL
Weather: -RA  (light rain)

METAR text: LHBP 230200Z AUTO 12007KT 9999 FEW059/// OVC090/// 08/04 Q1002
Conditions at: LHBP (BUDAPEST/FERIHEG, HU) observed 0200 UTC 23 January 2021
Temperature: 8.0°C (46°F)
Dewpoint: 4.0°C (39°F) [RH = 76%]
Pressure (altimeter): 29.59 inches Hg (1002.0 mb)
Winds: from the ESE (120 degrees) at 8 MPH (7 knots; 3.6 m/s)
Visibility: 6 or more miles (10+ km)
Ceiling: 9000 feet AGL
Clouds: few clouds at 5900 feet AGL
overcast cloud deck at 9000 feet AGL
Weather: no significant weather observed at this time

METAR text: LHBP 230130Z AUTO 13009KT 9999 FEW058/// OVC083/// 07/04 Q1002
Conditions at: LHBP (BUDAPEST/FERIHEG, HU) observed 0130 UTC 23 January 2021
Temperature: 7.0°C (45°F)
Dewpoint: 4.0°C (39°F) [RH = 81%]
Pressure (altimeter): 29.59 inches Hg (1002.0 mb)
Winds: from the SE (130 degrees) at 10 MPH (9 knots; 4.6 m/s)
Visibility: 6 or more miles (10+ km)
Ceiling: 8300 feet AGL
Clouds: few clouds at 5800 feet AGL
overcast cloud deck at 8300 feet AGL
Weather: no significant weather observed at this time

Forecast for: LHBP (BUDAPEST/FERIHEG, HU)
Text: TAF LHBP 241115Z 2412/2512 30007KT CAVOK
Forecast period: 1200 to 2000 UTC 24 January 2021
Forecast type: FROM: standard forecast or significant change
Winds: from the WNW (300 degrees) at 8 MPH (7 knots; 3.6 m/s)
Visibility: 6 or more miles (10+ km)
Ceiling: unknown
Clouds: missing
Weather: NSW  (no significant weather)
Text: TEMPO 2416/2420 VRB03KT
Forecast period: 1600 to 2000 UTC 24 January 2021
Forecast type: TEMPORARY: The following changes expected for less than half the time period
Winds: variable direction winds at 3 MPH (3 knots; 1.5 m/s)
Visibility: missing
Ceiling: unknown
Clouds: missing
Weather: no significant weather forecast for this period
Text: BECMG 2420/2423 32014KT
Forecast period: 2000 UTC 24 January 2021 to 0500 UTC 25 January 2021
Forecast type: BECOMING: Conditions expected to become as follows by 2300 UTC 24 January 2021
Winds: from the NW (320 degrees) at 16 MPH (14 knots; 7.2 m/s)
Visibility: 6 or more miles (10+ km)
Ceiling: unknown
Clouds: missing
Weather: NSW  (no significant weather)
Text: TEMPO 2422/2505 3500 SHSN BKN008 BKN060
Forecast period: 2200 UTC 24 January 2021 to 0500 UTC 25 January 2021
Forecast type: TEMPORARY: The following changes expected for less than half the time period
Visibility: 2.17 miles (3.49 km)
Ceiling: 800 feet AGL
Clouds: broken clouds at 800 feet AGL
broken clouds at 6000 feet AGL
Weather: SHSN  (snow showers)
Text: BECMG 2505/2507 SCT015 BKN060
Forecast period: 0500 to 1200 UTC 25 January 2021
Forecast type: BECOMING: Conditions expected to become as follows by 0700 UTC 25 January 2021
Winds: from the NW (320 degrees) at 16 MPH (14 knots; 7.2 m/s)
Visibility: 6 or more miles (10+ km)
Ceiling: 6000 feet AGL
Clouds: scattered clouds at 1500 feet AGL
broken clouds at 6000 feet AGL
Weather: NSW  (no significant weather)